createdAt,value
2022-08-20T00:01:19.522Z,98060.78
2022-08-20T00:03:57.645Z,98063.72
2022-08-20T00:07:00.273Z,98103.63
2022-08-20T00:09:29.985Z,98111.31
2022-08-20T00:11:57.441Z,98121.31
2022-08-20T00:14:24.860Z,98128.38
2022-08-20T00:16:53.029Z,98138.31
2022-08-20T00:19:21.122Z,98134.56
2022-08-20T00:21:53.086Z,98151.09
2022-08-20T00:24:26.238Z,98148.63
2022-08-20T00:26:54.361Z,98137.50
2022-08-20T00:29:28.309Z,98145.38
2022-08-20T00:31:56.393Z,98150.25
2022-08-20T00:34:24.479Z,98145.38
2022-08-20T00:36:52.543Z,98151.09
2022-08-20T00:39:20.618Z,98151.91
2022-08-20T00:41:48.726Z,98154.38
2022-08-20T00:44:23.819Z,98149.44
2022-08-20T00:46:51.840Z,98134.91
2022-08-20T00:49:28.038Z,98128.69
2022-08-20T00:51:59.956Z,98124.25
2022-08-20T00:54:47.991Z,98128.00
2022-08-20T00:57:27.315Z,98122.44
2022-08-20T01:00:17.105Z,98112.00
2022-08-20T01:02:45.171Z,98110.03
2022-08-20T01:05:13.198Z,98104.31
2022-08-20T01:07:41.256Z,98103.97
2022-08-20T01:10:15.317Z,98086.31
2022-08-20T01:12:48.371Z,98082.72
2022-08-20T01:15:26.895Z,98095.16
2022-08-20T01:17:59.467Z,98085.84
2022-08-20T01:20:40.756Z,98096.28
2022-08-20T01:23:33.574Z,98102.31
2022-08-20T01:26:22.640Z,98105.09
2022-08-20T01:28:55.692Z,98115.75
2022-08-20T01:31:27.776Z,98104.34
2022-08-20T01:33:55.826Z,98106.75
2022-08-20T01:36:35.889Z,98103.81
2022-08-20T01:39:04.940Z,98107.09
2022-08-20T01:42:03.021Z,98118.72
2022-08-20T01:44:31.090Z,98105.31
2022-08-20T01:47:00.059Z,98112.16
2022-08-20T01:49:30.168Z,98106.78
2022-08-20T01:52:00.238Z,98111.19
2022-08-20T01:54:28.266Z,98110.06
2022-08-20T01:57:02.326Z,98098.09
2022-08-20T01:59:30.388Z,98094.16
2022-08-20T02:02:21.796Z,98107.91
2022-08-20T02:04:49.501Z,98093.03
2022-08-20T02:07:19.539Z,98092.22
2022-08-20T02:09:47.602Z,98084.06
2022-08-20T02:12:15.649Z,98078.63
2022-08-20T02:14:44.720Z,98085.50
2022-08-20T02:17:12.767Z,98082.72
2022-08-20T02:19:49.819Z,98078.63
2022-08-20T02:22:36.867Z,98081.28
2022-08-20T02:25:06.922Z,98068.66
2022-08-20T02:27:34.891Z,98062.09
2022-08-20T02:30:28.610Z,98075.03
2022-08-20T02:32:59.966Z,98058.19
2022-08-20T02:35:28.241Z,98055.72
2022-08-20T02:37:56.326Z,98047.72
2022-08-20T02:40:31.130Z,98048.22
2022-08-20T02:43:02.380Z,98049.34
2022-08-20T02:45:30.482Z,98051.31
2022-08-20T02:47:59.564Z,98043.78
2022-08-20T02:50:28.620Z,98051.00
2022-08-20T02:52:56.668Z,98044.47
2022-08-20T02:55:49.698Z,98047.53
2022-08-20T02:58:17.746Z,98047.38
2022-08-20T03:00:45.798Z,98052.44
2022-08-20T03:03:13.857Z,98050.00
2022-08-20T03:05:42.897Z,98061.94
2022-08-20T03:08:34.989Z,98058.19
2022-08-20T03:11:03.006Z,98053.28
2022-08-20T03:13:30.638Z,98053.63
2022-08-20T03:16:00.109Z,98048.53
2022-08-20T03:18:36.406Z,98046.06
2022-08-20T03:21:04.426Z,98047.25
2022-08-20T03:23:35.266Z,98034.47
2022-08-20T03:26:04.304Z,98038.91
2022-08-20T03:28:32.354Z,98037.41
2022-08-20T03:31:00.416Z,98025.97
2022-08-20T03:33:28.479Z,98031.69
2022-08-20T03:35:56.630Z,98036.59
2022-08-20T03:38:32.984Z,98034.94
2022-08-20T03:41:02.638Z,98040.50
2022-08-20T03:43:30.698Z,98040.34
2022-08-20T03:45:58.778Z,98038.91
2022-08-20T03:48:26.795Z,98034.78
2022-08-20T03:50:54.841Z,98042.66
2022-08-20T03:53:23.905Z,98042.81
2022-08-20T03:56:00.491Z,98037.25
2022-08-20T03:58:35.115Z,98039.53
2022-08-20T04:01:04.173Z,98027.44
2022-08-20T04:03:32.124Z,98025.47
2022-08-20T04:06:00.172Z,98024.03
2022-08-20T04:08:30.263Z,98015.19
2022-08-20T04:11:00.718Z,98019.59
2022-08-20T04:13:29.169Z,98010.75
2022-08-20T04:15:57.392Z,98022.84
2022-08-20T04:18:26.439Z,98010.75
2022-08-20T04:21:18.492Z,98015.03
2022-08-20T04:23:46.544Z,98010.28
2022-08-20T04:26:14.574Z,98001.44
2022-08-20T04:28:42.635Z,98002.25
2022-08-20T04:31:10.683Z,97987.22
2022-08-20T04:33:43.648Z,97984.28
2022-08-20T04:36:11.843Z,97982.66
2022-08-20T04:38:48.208Z,97998.34
2022-08-20T04:41:24.197Z,97990.31
2022-08-20T04:43:56.011Z,97983.63
2022-08-20T04:46:45.300Z,98009.47
2022-08-20T04:49:38.180Z,98019.75
2022-08-20T04:52:06.127Z,98019.59
2022-08-20T04:54:34.189Z,98029.91
2022-08-20T04:57:03.245Z,98018.94
2022-08-20T04:59:31.279Z,98028.09
2022-08-20T05:01:59.336Z,98028.25
2022-08-20T05:04:28.374Z,98034.63
2022-08-20T05:06:57.427Z,98041.31
2022-08-20T05:09:26.494Z,98033.81
2022-08-20T05:11:54.531Z,98020.72
2022-08-20T05:14:22.577Z,98027.13
2022-08-20T05:17:16.652Z,98029.72
2022-08-20T05:19:44.684Z,98018.09
2022-08-20T05:22:12.722Z,98022.53
2022-08-20T05:24:40.770Z,98013.22
2022-08-20T05:27:08.558Z,97998.81
2022-08-20T05:29:53.886Z,97996.69
2022-08-20T05:32:22.930Z,98013.03
2022-08-20T05:34:51.998Z,98003.22
2022-08-20T05:37:20.059Z,98013.22
2022-08-20T05:39:48.190Z,98013.22
2022-08-20T05:42:16.178Z,98013.53
2022-08-20T05:44:43.886Z,98014.03
2022-08-20T05:47:11.250Z,98006.50
2022-08-20T05:49:39.302Z,98013.72
2022-08-20T05:52:07.346Z,98019.44
2022-08-20T05:54:34.853Z,98018.59
2022-08-20T05:57:03.446Z,98018.78
2022-08-20T05:59:56.509Z,98031.69
2022-08-20T06:02:42.567Z,98031.84
2022-08-20T06:05:31.772Z,98039.22
2022-08-20T06:08:07.860Z,98028.59
2022-08-20T06:10:36.730Z,98029.38
2022-08-20T06:13:05.786Z,98025.81
2022-08-20T06:15:33.854Z,98047.72
2022-08-20T06:18:08.375Z,98041.50
2022-08-20T06:20:52.952Z,98051.47
2022-08-20T06:23:21.004Z,98049.84
2022-08-20T06:25:51.045Z,98043.78
2022-08-20T06:28:20.113Z,98049.34
2022-08-20T06:30:51.158Z,98045.09
2022-08-20T06:33:19.386Z,98035.44
2022-08-20T06:35:47.272Z,98027.94
2022-08-20T06:38:15.312Z,98044.28
2022-08-20T06:40:43.358Z,98036.13
2022-08-20T06:43:12.443Z,98031.38
2022-08-20T06:45:40.502Z,98032.66
2022-08-20T06:48:39.232Z,98031.19
2022-08-20T06:51:07.575Z,98026.13
2022-08-20T06:53:36.512Z,98026.13
2022-08-20T06:56:04.729Z,98026.13
2022-08-20T06:58:37.763Z,98028.59
2022-08-20T07:01:10.778Z,98029.75
2022-08-20T07:03:42.206Z,98036.44
2022-08-20T07:06:23.872Z,98032.16
2022-08-20T07:08:51.982Z,98042.50
2022-08-20T07:11:27.332Z,98036.75
2022-08-20T07:13:57.147Z,98048.69
2022-08-20T07:16:26.159Z,98039.88
2022-08-20T07:18:54.206Z,98033.81
2022-08-20T07:21:22.257Z,98032.66
2022-08-20T07:23:50.295Z,98039.38
2022-08-20T07:26:18.351Z,98038.22
2022-08-20T07:29:11.442Z,98042.31
2022-08-20T07:31:57.467Z,98036.94
2022-08-20T07:34:25.082Z,98028.41
2022-08-20T07:36:52.562Z,98038.91
2022-08-20T07:39:23.619Z,98043.94
2022-08-20T07:42:03.667Z,98046.72
2022-08-20T07:44:31.714Z,98058.34
2022-08-20T07:47:29.992Z,98067.66
2022-08-20T07:49:58.306Z,98068.31
2022-08-20T07:52:25.893Z,98069.31
2022-08-20T07:54:53.939Z,98059.19
2022-08-20T07:57:52.395Z,98067.00
2022-08-20T08:00:23.166Z,98070.91
2022-08-20T08:02:51.129Z,98061.59
2022-08-20T08:05:19.179Z,98057.84
2022-08-20T08:08:18.225Z,98072.09
2022-08-20T08:11:10.264Z,98059.81
2022-08-20T08:13:44.779Z,98044.47
2022-08-20T08:16:12.282Z,98050.31
2022-08-20T08:18:45.277Z,98053.09
2022-08-20T08:21:17.545Z,98049.66
2022-08-20T08:23:45.667Z,98051.97
2022-08-20T08:26:16.237Z,98057.38
2022-08-20T08:28:46.638Z,98066.03
2022-08-20T08:31:14.618Z,98061.94
2022-08-20T08:47:46.216Z,98067.63
2022-08-20T08:50:49.974Z,98080.09
2022-08-20T08:53:25.319Z,98061.44
2022-08-20T08:56:18.296Z,98074.53
2022-08-20T08:58:47.326Z,98067.16
2022-08-20T09:01:55.540Z,98074.69
2022-08-20T09:04:28.067Z,98069.13
2022-08-20T09:06:57.542Z,98066.03
2022-08-20T09:09:42.370Z,98054.56
2022-08-20T09:12:15.658Z,98059.66
2022-08-20T09:14:43.720Z,98054.75
2022-08-20T09:17:11.763Z,98063.09
2022-08-20T09:19:39.221Z,98061.28
2022-08-20T09:22:17.877Z,98040.03
2022-08-20T09:24:46.920Z,98042.16
2022-08-20T09:27:14.971Z,98029.41
2022-08-20T09:29:43.019Z,98027.13
2022-08-20T09:32:17.294Z,98017.66
2022-08-20T09:34:46.114Z,98013.72
2022-08-20T09:37:14.173Z,98017.47
2022-08-20T10:17:58.304Z,98033.16
2022-08-20T10:20:50.187Z,98040.19
2022-08-20T10:23:18.153Z,98033.31
2022-08-20T10:25:46.149Z,98030.88
2022-08-20T10:28:15.229Z,98027.75
2022-08-20T10:30:43.254Z,98034.97
2022-08-20T10:33:11.308Z,98033.00
2022-08-20T10:35:39.370Z,98023.22
2022-08-20T10:38:07.416Z,98025.50
2022-08-20T10:40:35.472Z,98032.84
2022-08-20T10:43:04.515Z,98030.38
2022-08-20T10:45:32.594Z,98028.09
2022-08-20T10:48:01.652Z,98020.25
2022-08-20T10:50:30.680Z,98032.53
2022-08-20T10:52:58.751Z,98025.81
2022-08-20T10:55:26.877Z,98034.31
2022-08-20T10:58:39.954Z,98042.16
2022-08-20T11:01:12.489Z,98039.38
2022-08-20T11:04:22.339Z,98044.13
2022-08-20T11:06:50.059Z,98035.63
2022-08-20T11:09:18.166Z,98032.53
2022-08-20T11:11:46.193Z,98040.88
2022-08-20T11:14:58.274Z,98038.88
2022-08-20T11:17:30.955Z,98039.06
2022-08-20T11:19:59.321Z,98031.72
2022-08-20T11:22:27.364Z,98019.63
2022-08-20T11:24:56.131Z,98019.28
2022-08-20T11:27:28.481Z,98017.31
2022-08-20T11:29:56.529Z,98020.09
2022-08-20T11:32:25.604Z,98011.28
2022-08-20T11:35:41.002Z,98022.06
2022-08-20T11:38:03.706Z,98015.50
2022-08-20T11:40:33.504Z,98007.53
2022-08-20T11:43:17.569Z,98014.69
2022-08-20T11:45:47.868Z,98010.94
2022-08-20T11:48:15.932Z,98010.63
2022-08-20T11:50:43.981Z,98012.25
2022-08-20T11:53:13.021Z,98013.09
2022-08-20T11:55:43.076Z,98004.41
2022-08-20T11:58:12.635Z,98007.19
2022-08-20T12:00:40.172Z,98008.81
2022-08-20T12:03:12.775Z,98008.81
2022-08-20T12:05:45.950Z,97998.53
2022-08-20T12:08:25.221Z,97996.06
2022-08-20T12:13:48.064Z,97978.09
2022-08-20T12:16:26.944Z,97973.53
2022-08-20T12:21:37.381Z,97967.81
2022-08-20T12:24:07.606Z,97961.28
2022-08-20T12:26:36.543Z,97966.84
2022-08-20T12:29:04.768Z,97983.97
2022-08-20T12:31:33.753Z,97983.16
2022-08-20T12:34:01.804Z,97981.88
2022-08-20T12:36:29.881Z,97985.47
2022-08-20T12:38:58.035Z,97987.56
2022-08-20T12:41:26.963Z,97990.50
2022-08-20T12:43:55.464Z,97987.41
2022-08-20T12:46:22.912Z,97996.56
2022-08-20T12:48:52.113Z,97994.63
2022-08-20T12:51:22.304Z,98001.63
2022-08-20T12:53:50.384Z,98013.72
2022-08-20T12:56:18.497Z,98012.91
2022-08-20T12:58:48.157Z,98023.03
2022-08-20T13:01:17.203Z,98031.88
2022-08-20T13:03:47.564Z,98037.44
2022-08-20T13:06:15.428Z,98034.31
2022-08-20T13:08:44.424Z,98035.78
2022-08-20T13:11:12.528Z,98046.06
2022-08-20T13:13:40.594Z,98054.56
2022-08-20T13:16:08.591Z,98045.59
2022-08-20T13:18:37.062Z,98059.97
2022-08-20T13:21:06.547Z,98055.53
2022-08-20T13:23:34.777Z,98075.50
2022-08-20T13:26:03.832Z,98080.91
2022-08-20T13:28:31.893Z,98084.31
2022-08-20T13:31:00.807Z,98100.81
2022-08-20T13:33:29.974Z,98103.13
2022-08-20T13:36:00.273Z,98100.00
2022-08-20T13:38:33.062Z,98098.69
2022-08-20T13:41:02.166Z,98098.38
2022-08-20T13:43:31.179Z,98105.56
2022-08-20T13:45:59.232Z,98117.84
2022-08-20T13:48:27.287Z,98119.13
2022-08-20T13:50:55.322Z,98126.16
2022-08-20T13:53:25.371Z,98134.31
2022-08-20T13:56:18.550Z,98139.41
2022-08-20T13:58:46.521Z,98128.94
2022-08-20T14:01:14.603Z,98126.16
2022-08-20T14:03:42.661Z,98129.41
2022-08-20T14:06:15.022Z,98114.03
2022-08-20T14:08:44.585Z,98108.00
2022-08-20T14:11:17.588Z,98115.50
2022-08-20T14:14:16.727Z,98122.88
2022-08-20T14:16:44.839Z,98120.25
2022-08-20T14:19:14.761Z,98123.03
2022-08-20T14:21:43.994Z,98121.06
2022-08-20T14:24:11.998Z,98118.28
2022-08-20T14:26:40.066Z,98115.81
2022-08-20T14:29:08.124Z,98116.81
2022-08-20T14:31:36.098Z,98101.63
2022-08-20T14:34:04.186Z,98089.22
2022-08-20T14:36:32.259Z,98094.13
2022-08-20T14:39:00.330Z,98087.44
2022-08-20T14:41:29.176Z,98072.72
2022-08-20T14:43:57.379Z,98088.25
2022-08-20T14:46:25.353Z,98066.16
2022-08-20T14:48:56.298Z,98073.69
2022-08-20T14:51:24.535Z,98077.28
2022-08-20T14:53:54.488Z,98070.56
2022-08-20T14:56:22.620Z,98072.19
2022-08-20T14:58:51.193Z,98049.31
2022-08-20T15:01:22.228Z,98040.84
2022-08-20T15:03:49.769Z,98032.19
2022-08-20T15:06:21.877Z,98018.28
2022-08-20T15:08:51.874Z,98004.41
2022-08-20T15:11:19.936Z,98010.94
2022-08-20T15:13:47.992Z,98001.63
2022-08-20T15:16:16.859Z,98013.22
2022-08-20T15:18:45.084Z,98020.91
2022-08-20T15:21:13.911Z,98020.09
2022-08-20T15:23:42.182Z,98030.22
2022-08-20T15:26:10.251Z,98028.28
2022-08-20T15:28:42.374Z,98023.03
2022-08-20T15:31:13.446Z,98029.56
2022-08-20T15:33:44.398Z,98039.22
2022-08-20T15:36:12.460Z,98043.28
2022-08-20T15:38:40.216Z,98030.88
2022-08-20T15:41:08.420Z,98016.34
2022-08-20T15:43:36.631Z,97994.78
2022-08-20T15:46:06.696Z,97995.09
2022-08-20T15:48:48.596Z,97988.22
2022-08-20T15:51:22.629Z,97996.38
2022-08-20T15:54:01.880Z,97992.31
2022-08-20T15:56:59.189Z,97984.31
2022-08-20T16:00:21.493Z,97981.06
2022-08-20T16:03:46.525Z,97991.81
2022-08-20T16:06:19.442Z,98000.97
2022-08-20T16:09:16.416Z,97996.69
2022-08-20T16:11:47.502Z,98002.59
2022-08-20T16:14:30.590Z,98005.81
2022-08-20T16:17:07.674Z,98013.56
2022-08-20T16:20:03.376Z,98033.16
2022-08-20T16:22:37.564Z,98016.47
2022-08-20T16:25:06.903Z,98006.16
2022-08-20T16:27:47.991Z,98021.53
2022-08-20T16:30:34.052Z,98012.72
2022-08-20T16:33:09.069Z,98008.44
2022-08-20T16:35:43.148Z,98002.88
2022-08-20T16:38:27.189Z,98011.72
2022-08-20T16:41:02.271Z,98016.78
2022-08-20T16:43:36.193Z,98008.28
2022-08-20T16:46:25.288Z,98020.38
2022-08-20T16:49:00.233Z,98017.44
2022-08-20T16:51:52.041Z,98025.25
2022-08-20T16:54:28.531Z,98026.06
2022-08-20T16:57:02.624Z,98016.59
2022-08-20T16:59:30.657Z,98011.88
2022-08-20T17:02:10.780Z,98007.47
2022-08-20T17:04:58.769Z,98007.97
2022-08-20T17:07:51.552Z,98027.72
2022-08-20T17:10:31.288Z,98030.66
2022-08-20T17:13:20.594Z,98037.19
2022-08-20T17:16:09.200Z,98039.97
2022-08-20T17:18:39.021Z,98028.03
2022-08-20T17:21:40.102Z,98034.56
2022-08-20T17:24:20.137Z,98019.53
2022-08-20T17:26:54.007Z,98019.53
2022-08-20T17:29:32.756Z,98039.00
2022-08-20T17:32:16.301Z,98048.78
2022-08-20T17:34:51.930Z,98051.88
2022-08-20T17:37:24.745Z,98059.09
2022-08-20T17:39:57.473Z,98057.44
2022-08-20T17:42:28.503Z,98058.91
2022-08-20T17:45:10.404Z,98066.44
2022-08-20T17:47:39.632Z,98057.13
2022-08-20T17:50:17.664Z,98062.66
2022-08-20T17:52:53.800Z,98074.41
2022-08-20T17:55:21.773Z,98072.78
2022-08-20T17:57:50.827Z,98068.69
2022-08-20T18:00:24.872Z,98071.13
2022-08-20T18:02:54.971Z,98072.78
2022-08-20T18:05:22.965Z,98076.53
2022-08-20T18:08:12.037Z,98066.56
2022-08-20T18:10:48.034Z,98044.03
2022-08-20T18:13:20.914Z,98050.56
2022-08-20T18:15:56.485Z,98047.78
2022-08-20T18:18:31.241Z,98042.56
2022-08-20T18:21:26.292Z,98052.69
2022-08-20T18:24:29.342Z,98046.81
2022-08-20T18:26:59.402Z,98043.38
2022-08-20T18:29:36.450Z,98033.56
2022-08-20T18:32:08.508Z,98033.25
2022-08-20T18:34:41.576Z,98024.75
2022-08-20T18:37:19.605Z,98032.59
2022-08-20T18:39:48.722Z,98041.88
2022-08-20T18:42:25.702Z,98060.34
2022-08-20T18:44:54.763Z,98054.94
2022-08-20T18:47:42.809Z,98048.41
2022-08-20T18:50:18.862Z,98052.84
2022-08-20T18:52:51.010Z,98054.94
2022-08-20T18:55:39.953Z,98056.41
2022-08-20T18:58:10.007Z,98066.56
2022-08-20T19:00:46.053Z,98062.78
2022-08-20T19:03:17.785Z,98073.06
2022-08-20T19:06:03.668Z,98085.34
2022-08-20T19:08:50.122Z,98087.94
2022-08-20T19:11:55.278Z,98093.50
2022-08-20T19:14:41.332Z,98087.63
2022-08-20T19:17:17.391Z,98075.34
2022-08-20T19:19:45.416Z,98077.81
2022-08-20T19:22:13.885Z,98065.06
2022-08-20T19:24:45.536Z,98060.47
2022-08-20T19:27:13.575Z,98060.97
2022-08-20T19:29:47.637Z,98050.50
2022-08-20T19:32:30.674Z,98052.16
2022-08-20T19:35:05.746Z,98046.59
2022-08-20T19:37:50.592Z,98055.44
2022-08-20T19:40:30.835Z,98041.03
2022-08-20T19:43:00.032Z,98032.22
2022-08-20T19:45:33.931Z,98040.41
2022-08-20T19:48:08.975Z,98037.13
2022-08-20T19:50:49.016Z,98054.78
2022-08-20T19:53:30.929Z,98063.25
2022-08-20T19:56:31.971Z,98059.34
2022-08-20T19:59:08.201Z,98047.25
2022-08-20T20:01:36.344Z,98040.56
2022-08-20T20:04:09.300Z,98044.94
2022-08-20T20:06:39.362Z,98035.31
2022-08-20T20:09:10.421Z,98043.97
2022-08-20T20:11:44.459Z,98044.09
2022-08-20T20:14:13.400Z,98046.25
2022-08-20T20:16:41.579Z,98039.72
2022-08-20T20:19:26.380Z,98047.91
2022-08-20T20:22:20.215Z,98043.13
2022-08-20T20:25:14.317Z,98047.06
2022-08-20T20:27:41.758Z,98039.88
2022-08-20T20:30:13.814Z,98043.97
2022-08-20T20:32:42.862Z,98042.66
2022-08-20T20:35:10.920Z,98048.06
2022-08-20T20:37:49.064Z,98036.28
2022-08-20T20:40:25.473Z,98042.97
2022-08-20T20:43:08.097Z,98044.78
2022-08-20T20:45:45.130Z,98031.06
2022-08-20T20:48:23.185Z,98035.78
2022-08-20T20:50:54.046Z,98047.91
2022-08-20T20:53:48.418Z,98033.34
2022-08-20T20:56:45.356Z,98039.72
2022-08-20T20:59:14.395Z,98035.78
2022-08-20T21:01:48.698Z,98038.06
2022-08-20T21:04:19.726Z,98040.19
2022-08-20T21:06:47.527Z,98034.78
2022-08-20T21:09:15.431Z,98050.47
2022-08-20T21:11:43.633Z,98035.59
2022-08-20T21:14:11.690Z,98046.41
2022-08-20T21:16:39.734Z,98043.63
2022-08-20T21:19:08.764Z,98036.13
2022-08-20T21:21:37.821Z,98027.94
2022-08-20T21:24:05.871Z,98030.41
2022-08-20T21:26:33.417Z,98030.88
2022-08-20T21:29:00.962Z,98028.41
2022-08-20T21:31:32.018Z,98033.34
2022-08-20T21:34:00.065Z,98018.28
2022-08-20T21:36:28.280Z,98033.66
2022-08-20T21:38:56.160Z,98029.38
2022-08-20T21:41:29.865Z,98044.28
2022-08-20T21:44:00.247Z,98034.13
2022-08-20T21:46:29.299Z,98027.44
2022-08-20T21:48:57.386Z,98030.72
2022-08-20T21:51:25.401Z,98023.03
2022-08-20T21:53:53.454Z,98025.16
2022-08-20T21:56:22.536Z,98020.44
2022-08-20T21:58:50.569Z,98009.66
2022-08-20T22:14:15.671Z,97992.19
2022-08-20T22:17:21.580Z,97988.94
2022-08-20T22:20:22.071Z,97985.81
2022-08-20T22:23:11.010Z,97998.09
2022-08-20T22:26:16.525Z,97991.38
2022-08-20T22:29:09.024Z,97995.78
2022-08-20T22:31:38.656Z,97992.03
2022-08-20T22:34:06.610Z,97997.91
2022-08-20T22:36:34.726Z,97989.09
2022-08-20T22:39:02.356Z,97996.13
2022-08-20T22:42:01.291Z,98002.66
2022-08-20T22:44:55.682Z,97994.66
2022-08-20T22:48:00.952Z,97986.84
2022-08-20T22:50:53.211Z,97987.31
2022-08-20T22:53:24.069Z,97991.22
2022-08-20T22:56:45.585Z,97982.91
2022-08-20T22:59:52.908Z,97983.72
2022-08-20T23:02:53.435Z,97985.69
2022-08-20T23:05:46.487Z,97991.22
2022-08-20T23:08:16.351Z,97986.66
2022-08-20T23:11:08.432Z,97998.72
2022-08-20T23:13:37.482Z,97986.47
2022-08-20T23:16:05.533Z,98000.53
2022-08-20T23:18:59.595Z,98002.97
2022-08-20T23:22:05.974Z,98016.03
2022-08-20T23:24:36.718Z,98003.13
2022-08-20T23:27:06.796Z,97995.13
2022-08-20T23:29:34.803Z,97998.09
2022-08-20T23:32:03.211Z,97990.06
2022-08-20T23:34:33.219Z,97988.13
2022-08-20T23:37:02.024Z,97987.31
2022-08-20T23:39:30.091Z,97987.31
2022-08-20T23:41:59.627Z,97997.13
2022-08-20T23:44:29.120Z,97995.63
2022-08-20T23:47:03.010Z,97995.31
2022-08-20T23:49:32.681Z,97977.16
2022-08-20T23:52:01.697Z,97983.22
2022-08-20T23:54:30.320Z,97984.84
2022-08-20T23:56:59.371Z,97985.81
2022-08-20T23:59:29.261Z,97978.66
